KYKN/YKN METAR and TAF weather

Enter ICAO airport designator
Station Type Date Time Source
KYKN METAR 2019/10/15 17:56 UTC NOAA

KYKN 151756Z AUTO 30027G30KT 10SM SCT041 OVC050 09/00 A3007 RMK AO2 PK WND 30035/1733 SLP201 T00890000 10106 20050 53006


Station Type Date Time Source
KYKN Decoded METAR 2019/10/15 17:56 UTC NOAA

Yankton, Chan Gurney Municipal Airport, SD, United States (KYKN) 42-55N 097-23W
Oct 15, 2019 - 01:56 PM EDT / 2019.10.15 1756 UTC
Wind: from the WNW (300 degrees) at 31 MPH (27 KT) gusting to 35 MPH (30 KT):0
Visibility: 10 mile(s):0
Sky conditions: overcast
Temperature: 48.0 F (8.9 C)
Dew Point: 32.0 F (0.0 C)
Relative Humidity: 53%
Pressure (altimeter): 30.07 in. Hg (1018 hPa)
Pressure tendency: 0.02 inches (0.6 hPa) higher than three hours ago
ob: KYKN 151756Z AUTO 30027G30KT 10SM SCT041 OVC050 09/00 A3007 RMK AO2 PK WND 30035/1733 SLP201 T00890000 10106 20050 53006
cycle: 18

Station Type Date Time Source
KYKN TAF UTC NOAA

Error!

Example: see airport list